sensor_id;sensor_type;location;lat;lon;timestamp;P1;durP1;ratioP1;P2;durP2;ratioP2
30874;SDS011;17581;43.222;27.924;2023-03-23T00:01:46;9.63;;;6.45;;
30874;SDS011;17581;43.222;27.924;2023-03-23T00:04:14;17.52;;;8.20;;
30874;SDS011;17581;43.222;27.924;2023-03-23T00:06:41;12.10;;;7.80;;
30874;SDS011;17581;43.222;27.924;2023-03-23T00:09:07;12.13;;;7.72;;
30874;SDS011;17581;43.222;27.924;2023-03-23T00:11:33;12.43;;;8.23;;
30874;SDS011;17581;43.222;27.924;2023-03-23T00:13:59;12.07;;;7.32;;
30874;SDS011;17581;43.222;27.924;2023-03-23T00:16:29;12.15;;;8.35;;
30874;SDS011;17581;43.222;27.924;2023-03-23T00:21:48;13.88;;;8.63;;
30874;SDS011;17581;43.222;27.924;2023-03-23T00:24:18;13.95;;;7.82;;
30874;SDS011;17581;43.222;27.924;2023-03-23T00:26:45;15.73;;;7.72;;
30874;SDS011;17581;43.222;27.924;2023-03-23T00:31:42;10.68;;;7.90;;
30874;SDS011;17581;43.222;27.924;2023-03-23T00:34:12;12.88;;;7.25;;
30874;SDS011;17581;43.222;27.924;2023-03-23T00:36:48;18.77;;;7.53;;
30874;SDS011;17581;43.222;27.924;2023-03-23T00:39:15;11.43;;;7.78;;
30874;SDS011;17581;43.222;27.924;2023-03-23T00:41:42;14.80;;;8.48;;
30874;SDS011;17581;43.222;27.924;2023-03-23T00:44:08;18.60;;;8.95;;
30874;SDS011;17581;43.222;27.924;2023-03-23T00:46:34;17.40;;;8.32;;
30874;SDS011;17581;43.222;27.924;2023-03-23T00:49:09;13.93;;;8.07;;
30874;SDS011;17581;43.222;27.924;2023-03-23T00:51:39;16.38;;;9.73;;
30874;SDS011;17581;43.222;27.924;2023-03-23T00:54:06;11.32;;;8.70;;
30874;SDS011;17581;43.222;27.924;2023-03-23T00:56:32;13.32;;;8.50;;
30874;SDS011;17581;43.222;27.924;2023-03-23T00:58:58;11.25;;;7.35;;
30874;SDS011;17581;43.222;27.924;2023-03-23T01:01:23;13.20;;;8.50;;
30874;SDS011;17581;43.222;27.924;2023-03-23T01:03:49;17.77;;;8.60;;
30874;SDS011;17581;43.222;27.924;2023-03-23T01:06:14;15.52;;;9.18;;
30874;SDS011;17581;43.222;27.924;2023-03-23T01:08:40;15.07;;;8.32;;
30874;SDS011;17581;43.222;27.924;2023-03-23T01:11:11;10.70;;;7.95;;
30874;SDS011;17581;43.222;27.924;2023-03-23T01:13:38;13.70;;;8.45;;
30874;SDS011;17581;43.222;27.924;2023-03-23T01:16:04;15.32;;;8.95;;
30874;SDS011;17581;43.222;27.924;2023-03-23T01:18:30;15.27;;;9.10;;
30874;SDS011;17581;43.222;27.924;2023-03-23T01:20:56;20.38;;;10.43;;
30874;SDS011;17581;43.222;27.924;2023-03-23T01:23:21;15.38;;;8.90;;
30874;SDS011;17581;43.222;27.924;2023-03-23T01:25:47;15.35;;;9.38;;
30874;SDS011;17581;43.222;27.924;2023-03-23T01:28:12;11.27;;;8.02;;
30874;SDS011;17581;43.222;27.924;2023-03-23T01:30:37;13.10;;;8.43;;
30874;SDS011;17581;43.222;27.924;2023-03-23T01:33:03;10.52;;;7.30;;
30874;SDS011;17581;43.222;27.924;2023-03-23T01:35:28;12.98;;;8.10;;
30874;SDS011;17581;43.222;27.924;2023-03-23T01:37:54;12.85;;;8.65;;
30874;SDS011;17581;43.222;27.924;2023-03-23T01:40:19;14.23;;;8.43;;
30874;SDS011;17581;43.222;27.924;2023-03-23T01:42:45;18.67;;;8.30;;
30874;SDS011;17581;43.222;27.924;2023-03-23T01:45:32;12.65;;;9.18;;
30874;SDS011;17581;43.222;27.924;2023-03-23T01:48:03;15.60;;;7.85;;
30874;SDS011;17581;43.222;27.924;2023-03-23T01:50:31;12.93;;;8.88;;
30874;SDS011;17581;43.222;27.924;2023-03-23T01:53:01;17.08;;;9.40;;
30874;SDS011;17581;43.222;27.924;2023-03-23T01:55:33;12.32;;;8.35;;
30874;SDS011;17581;43.222;27.924;2023-03-23T01:58:02;12.55;;;8.23;;
30874;SDS011;17581;43.222;27.924;2023-03-23T02:00:27;11.45;;;8.35;;
30874;SDS011;17581;43.222;27.924;2023-03-23T02:02:55;11.15;;;6.53;;
30874;SDS011;17581;43.222;27.924;2023-03-23T02:05:24;9.35;;;6.30;;
30874;SDS011;17581;43.222;27.924;2023-03-23T02:07:56;10.68;;;7.45;;
30874;SDS011;17581;43.222;27.924;2023-03-23T02:10:27;11.13;;;7.20;;
30874;SDS011;17581;43.222;27.924;2023-03-23T02:12:57;13.85;;;6.85;;
30874;SDS011;17581;43.222;27.924;2023-03-23T02:15:26;7.25;;;6.10;;
30874;SDS011;17581;43.222;27.924;2023-03-23T02:20:37;11.25;;;6.68;;
30874;SDS011;17581;43.222;27.924;2023-03-23T02:23:25;9.80;;;6.40;;
30874;SDS011;17581;43.222;27.924;2023-03-23T02:29:13;8.55;;;4.85;;
30874;SDS011;17581;43.222;27.924;2023-03-23T02:34:32;9.00;;;7.63;;
30874;SDS011;17581;43.222;27.924;2023-03-23T02:40:25;6.88;;;5.20;;
30874;SDS011;17581;43.222;27.924;2023-03-23T02:42:57;5.38;;;4.18;;
30874;SDS011;17581;43.222;27.924;2023-03-23T02:45:25;6.97;;;4.85;;
30874;SDS011;17581;43.222;27.924;2023-03-23T02:48:01;7.20;;;4.68;;
30874;SDS011;17581;43.222;27.924;2023-03-23T02:50:38;7.80;;;5.18;;
30874;SDS011;17581;43.222;27.924;2023-03-23T02:53:09;10.25;;;5.88;;
30874;SDS011;17581;43.222;27.924;2023-03-23T02:55:38;13.63;;;6.90;;
30874;SDS011;17581;43.222;27.924;2023-03-23T02:58:10;12.07;;;8.63;;
30874;SDS011;17581;43.222;27.924;2023-03-23T03:00:36;14.10;;;9.98;;
30874;SDS011;17581;43.222;27.924;2023-03-23T03:03:02;14.48;;;10.32;;
30874;SDS011;17581;43.222;27.924;2023-03-23T03:11:17;22.77;;;16.52;;
30874;SDS011;17581;43.222;27.924;2023-03-23T03:14:09;24.40;;;16.67;;
30874;SDS011;17581;43.222;27.924;2023-03-23T03:19:13;23.45;;;15.88;;
30874;SDS011;17581;43.222;27.924;2023-03-23T03:21:44;22.43;;;15.93;;
30874;SDS011;17581;43.222;27.924;2023-03-23T03:24:12;20.02;;;14.55;;
30874;SDS011;17581;43.222;27.924;2023-03-23T03:26:42;20.50;;;14.68;;
30874;SDS011;17581;43.222;27.924;2023-03-23T03:29:12;25.25;;;15.25;;
30874;SDS011;17581;43.222;27.924;2023-03-23T03:31:42;22.70;;;15.23;;
30874;SDS011;17581;43.222;27.924;2023-03-23T03:34:13;31.45;;;16.67;;
30874;SDS011;17581;43.222;27.924;2023-03-23T03:36:43;26.02;;;17.00;;
30874;SDS011;17581;43.222;27.924;2023-03-23T03:39:11;24.95;;;17.13;;
30874;SDS011;17581;43.222;27.924;2023-03-23T03:41:40;24.75;;;16.90;;
30874;SDS011;17581;43.222;27.924;2023-03-23T03:44:06;23.45;;;15.77;;
30874;SDS011;17581;43.222;27.924;2023-03-23T03:46:35;18.88;;;14.23;;
30874;SDS011;17581;43.222;27.924;2023-03-23T03:49:07;19.88;;;12.25;;
30874;SDS011;17581;43.222;27.924;2023-03-23T03:51:34;12.30;;;8.65;;
30874;SDS011;17581;43.222;27.924;2023-03-23T03:54:00;8.88;;;6.70;;
30874;SDS011;17581;43.222;27.924;2023-03-23T03:56:26;10.45;;;6.57;;
30874;SDS011;17581;43.222;27.924;2023-03-23T03:58:52;10.02;;;6.03;;
30874;SDS011;17581;43.222;27.924;2023-03-23T04:01:18;8.68;;;6.57;;
30874;SDS011;17581;43.222;27.924;2023-03-23T04:03:49;8.55;;;6.82;;
30874;SDS011;17581;43.222;27.924;2023-03-23T04:06:15;8.88;;;6.90;;
30874;SDS011;17581;43.222;27.924;2023-03-23T04:08:41;8.98;;;7.00;;
30874;SDS011;17581;43.222;27.924;2023-03-23T04:11:08;9.85;;;7.85;;
30874;SDS011;17581;43.222;27.924;2023-03-23T04:13:35;16.15;;;7.35;;
30874;SDS011;17581;43.222;27.924;2023-03-23T04:16:01;10.88;;;7.38;;
30874;SDS011;17581;43.222;27.924;2023-03-23T04:18:27;10.45;;;7.13;;
30874;SDS011;17581;43.222;27.924;2023-03-23T04:20:53;7.05;;;4.75;;
30874;SDS011;17581;43.222;27.924;2023-03-23T04:23:24;8.82;;;4.70;;
30874;SDS011;17581;43.222;27.924;2023-03-23T04:25:50;15.20;;;9.13;;
30874;SDS011;17581;43.222;27.924;2023-03-23T04:28:18;17.70;;;12.23;;
30874;SDS011;17581;43.222;27.924;2023-03-23T04:30:48;40.22;;;24.00;;
30874;SDS011;17581;43.222;27.924;2023-03-23T04:33:18;60.00;;;36.80;;
30874;SDS011;17581;43.222;27.924;2023-03-23T04:35:45;94.05;;;50.95;;
30874;SDS011;17581;43.222;27.924;2023-03-23T04:38:13;59.20;;;36.25;;
30874;SDS011;17581;43.222;27.924;2023-03-23T04:40:43;51.63;;;28.00;;
30874;SDS011;17581;43.222;27.924;2023-03-23T04:43:09;56.90;;;31.00;;
30874;SDS011;17581;43.222;27.924;2023-03-23T04:45:37;47.58;;;28.48;;
30874;SDS011;17581;43.222;27.924;2023-03-23T04:48:06;43.83;;;28.15;;
30874;SDS011;17581;43.222;27.924;2023-03-23T04:50:32;43.90;;;26.65;;
30874;SDS011;17581;43.222;27.924;2023-03-23T04:52:59;44.20;;;28.55;;
30874;SDS011;17581;43.222;27.924;2023-03-23T04:55:29;46.92;;;27.25;;
30874;SDS011;17581;43.222;27.924;2023-03-23T04:57:55;36.00;;;21.80;;
30874;SDS011;17581;43.222;27.924;2023-03-23T05:00:25;28.10;;;16.70;;
30874;SDS011;17581;43.222;27.924;2023-03-23T05:02:51;30.33;;;18.15;;
30874;SDS011;17581;43.222;27.924;2023-03-23T05:05:17;32.03;;;20.05;;
30874;SDS011;17581;43.222;27.924;2023-03-23T05:07:44;32.75;;;20.55;;
30874;SDS011;17581;43.222;27.924;2023-03-23T05:10:11;33.40;;;19.85;;
30874;SDS011;17581;43.222;27.924;2023-03-23T05:12:38;30.48;;;17.38;;
30874;SDS011;17581;43.222;27.924;2023-03-23T05:15:04;15.27;;;10.45;;
30874;SDS011;17581;43.222;27.924;2023-03-23T05:17:31;18.50;;;11.90;;
30874;SDS011;17581;43.222;27.924;2023-03-23T05:19:58;13.95;;;10.05;;
30874;SDS011;17581;43.222;27.924;2023-03-23T05:22:26;16.88;;;10.63;;
30874;SDS011;17581;43.222;27.924;2023-03-23T05:24:52;16.50;;;11.60;;
30874;SDS011;17581;43.222;27.924;2023-03-23T05:27:18;20.70;;;12.63;;
30874;SDS011;17581;43.222;27.924;2023-03-23T05:29:46;9.48;;;7.57;;
30874;SDS011;17581;43.222;27.924;2023-03-23T05:32:16;12.40;;;6.85;;
30874;SDS011;17581;43.222;27.924;2023-03-23T05:34:42;11.55;;;8.18;;
30874;SDS011;17581;43.222;27.924;2023-03-23T05:37:08;15.07;;;9.23;;
30874;SDS011;17581;43.222;27.924;2023-03-23T05:39:37;19.27;;;11.77;;
30874;SDS011;17581;43.222;27.924;2023-03-23T05:42:03;16.00;;;11.32;;
30874;SDS011;17581;43.222;27.924;2023-03-23T05:44:29;23.10;;;11.02;;
30874;SDS011;17581;43.222;27.924;2023-03-23T05:46:55;14.90;;;10.60;;
30874;SDS011;17581;43.222;27.924;2023-03-23T05:49:20;15.48;;;10.48;;
30874;SDS011;17581;43.222;27.924;2023-03-23T05:51:47;16.10;;;10.85;;
30874;SDS011;17581;43.222;27.924;2023-03-23T05:54:13;22.42;;;11.50;;
30874;SDS011;17581;43.222;27.924;2023-03-23T05:56:39;12.45;;;9.02;;
30874;SDS011;17581;43.222;27.924;2023-03-23T05:59:05;15.75;;;9.50;;
30874;SDS011;17581;43.222;27.924;2023-03-23T06:01:30;14.50;;;9.85;;
30874;SDS011;17581;43.222;27.924;2023-03-23T06:03:56;21.42;;;13.88;;
30874;SDS011;17581;43.222;27.924;2023-03-23T06:06:26;16.52;;;12.10;;
30874;SDS011;17581;43.222;27.924;2023-03-23T06:08:53;15.15;;;10.82;;
30874;SDS011;17581;43.222;27.924;2023-03-23T06:11:19;20.17;;;14.30;;
30874;SDS011;17581;43.222;27.924;2023-03-23T06:13:44;13.13;;;9.27;;
30874;SDS011;17581;43.222;27.924;2023-03-23T06:16:10;11.32;;;8.50;;
30874;SDS011;17581;43.222;27.924;2023-03-23T06:18:36;10.70;;;7.63;;
30874;SDS011;17581;43.222;27.924;2023-03-23T06:21:04;16.83;;;8.25;;
30874;SDS011;17581;43.222;27.924;2023-03-23T06:23:29;13.95;;;7.70;;
30874;SDS011;17581;43.222;27.924;2023-03-23T06:30:53;13.93;;;8.20;;
30874;SDS011;17581;43.222;27.924;2023-03-23T06:33:19;13.70;;;8.35;;
30874;SDS011;17581;43.222;27.924;2023-03-23T06:38:19;14.43;;;9.18;;
30874;SDS011;17581;43.222;27.924;2023-03-23T06:43:20;15.88;;;9.98;;
30874;SDS011;17581;43.222;27.924;2023-03-23T06:45:45;25.45;;;14.55;;
30874;SDS011;17581;43.222;27.924;2023-03-23T06:48:11;18.40;;;12.05;;
30874;SDS011;17581;43.222;27.924;2023-03-23T06:50:37;15.30;;;11.73;;
30874;SDS011;17581;43.222;27.924;2023-03-23T06:53:03;21.17;;;13.90;;
30874;SDS011;17581;43.222;27.924;2023-03-23T06:55:56;14.57;;;11.75;;
30874;SDS011;17581;43.222;27.924;2023-03-23T06:58:22;20.02;;;11.57;;
30874;SDS011;17581;43.222;27.924;2023-03-23T07:03:30;19.48;;;14.35;;
30874;SDS011;17581;43.222;27.924;2023-03-23T07:08:31;17.50;;;12.18;;
30874;SDS011;17581;43.222;27.924;2023-03-23T07:10:56;17.67;;;12.40;;
30874;SDS011;17581;43.222;27.924;2023-03-23T07:13:22;13.65;;;9.75;;
30874;SDS011;17581;43.222;27.924;2023-03-23T07:15:48;12.68;;;9.63;;
30874;SDS011;17581;43.222;27.924;2023-03-23T07:18:15;20.35;;;11.13;;
30874;SDS011;17581;43.222;27.924;2023-03-23T07:20:41;15.68;;;10.65;;
30874;SDS011;17581;43.222;27.924;2023-03-23T07:23:07;15.23;;;10.05;;
30874;SDS011;17581;43.222;27.924;2023-03-23T07:28:08;16.00;;;11.38;;
30874;SDS011;17581;43.222;27.924;2023-03-23T07:30:33;13.85;;;9.73;;
30874;SDS011;17581;43.222;27.924;2023-03-23T07:32:59;13.52;;;9.68;;
30874;SDS011;17581;43.222;27.924;2023-03-23T07:35:29;16.02;;;9.32;;
30874;SDS011;17581;43.222;27.924;2023-03-23T07:37:55;14.35;;;9.82;;
30874;SDS011;17581;43.222;27.924;2023-03-23T07:40:20;11.98;;;8.82;;
30874;SDS011;17581;43.222;27.924;2023-03-23T07:42:50;14.30;;;9.73;;
30874;SDS011;17581;43.222;27.924;2023-03-23T07:45:18;13.48;;;9.93;;
30874;SDS011;17581;43.222;27.924;2023-03-23T07:50:14;15.95;;;11.30;;
30874;SDS011;17581;43.222;27.924;2023-03-23T07:52:40;15.88;;;10.32;;
30874;SDS011;17581;43.222;27.924;2023-03-23T07:55:07;16.38;;;10.80;;
30874;SDS011;17581;43.222;27.924;2023-03-23T07:57:34;17.10;;;11.50;;
30874;SDS011;17581;43.222;27.924;2023-03-23T08:00:00;16.10;;;11.93;;
30874;SDS011;17581;43.222;27.924;2023-03-23T08:02:28;16.55;;;10.55;;
30874;SDS011;17581;43.222;27.924;2023-03-23T08:04:53;24.42;;;12.57;;
30874;SDS011;17581;43.222;27.924;2023-03-23T08:07:21;19.90;;;12.93;;
30874;SDS011;17581;43.222;27.924;2023-03-23T08:09:47;19.25;;;11.40;;
30874;SDS011;17581;43.222;27.924;2023-03-23T08:12:13;14.52;;;10.35;;
30874;SDS011;17581;43.222;27.924;2023-03-23T08:14:39;15.15;;;9.57;;
30874;SDS011;17581;43.222;27.924;2023-03-23T08:17:06;15.57;;;11.38;;
30874;SDS011;17581;43.222;27.924;2023-03-23T08:19:32;17.73;;;11.43;;
30874;SDS011;17581;43.222;27.924;2023-03-23T08:22:01;15.82;;;9.85;;
30874;SDS011;17581;43.222;27.924;2023-03-23T08:24:30;27.58;;;10.55;;
30874;SDS011;17581;43.222;27.924;2023-03-23T08:26:57;19.77;;;12.98;;
30874;SDS011;17581;43.222;27.924;2023-03-23T08:29:23;27.45;;;18.23;;
30874;SDS011;17581;43.222;27.924;2023-03-23T08:31:49;20.23;;;13.55;;
30874;SDS011;17581;43.222;27.924;2023-03-23T08:34:15;18.35;;;11.23;;
30874;SDS011;17581;43.222;27.924;2023-03-23T08:36:41;17.65;;;12.18;;
30874;SDS011;17581;43.222;27.924;2023-03-23T08:39:09;19.05;;;12.82;;
30874;SDS011;17581;43.222;27.924;2023-03-23T08:41:35;23.58;;;12.70;;
30874;SDS011;17581;43.222;27.924;2023-03-23T08:44:00;19.55;;;13.05;;
30874;SDS011;17581;43.222;27.924;2023-03-23T08:46:26;18.77;;;11.68;;
30874;SDS011;17581;43.222;27.924;2023-03-23T08:48:57;17.50;;;10.82;;
30874;SDS011;17581;43.222;27.924;2023-03-23T08:51:24;16.23;;;10.00;;
30874;SDS011;17581;43.222;27.924;2023-03-23T08:54:11;17.83;;;11.02;;
30874;SDS011;17581;43.222;27.924;2023-03-23T08:56:59;16.63;;;10.68;;
30874;SDS011;17581;43.222;27.924;2023-03-23T08:59:25;14.27;;;10.60;;
30874;SDS011;17581;43.222;27.924;2023-03-23T09:01:51;15.65;;;10.40;;
30874;SDS011;17581;43.222;27.924;2023-03-23T09:04:17;25.60;;;13.02;;
30874;SDS011;17581;43.222;27.924;2023-03-23T09:06:43;20.13;;;12.18;;
30874;SDS011;17581;43.222;27.924;2023-03-23T09:09:09;19.40;;;11.90;;
30874;SDS011;17581;43.222;27.924;2023-03-23T09:11:35;18.98;;;12.55;;
30874;SDS011;17581;43.222;27.924;2023-03-23T09:14:02;20.65;;;12.38;;
30874;SDS011;17581;43.222;27.924;2023-03-23T09:16:29;23.75;;;13.57;;
30874;SDS011;17581;43.222;27.924;2023-03-23T09:18:54;21.35;;;12.50;;
30874;SDS011;17581;43.222;27.924;2023-03-23T09:21:22;16.98;;;9.20;;
30874;SDS011;17581;43.222;27.924;2023-03-23T09:23:48;16.27;;;9.25;;
30874;SDS011;17581;43.222;27.924;2023-03-23T09:26:13;19.67;;;9.98;;
30874;SDS011;17581;43.222;27.924;2023-03-23T09:28:40;24.45;;;14.45;;
30874;SDS011;17581;43.222;27.924;2023-03-23T09:31:05;26.70;;;14.20;;
30874;SDS011;17581;43.222;27.924;2023-03-23T09:33:31;29.48;;;15.48;;
30874;SDS011;17581;43.222;27.924;2023-03-23T09:36:00;26.33;;;14.32;;
30874;SDS011;17581;43.222;27.924;2023-03-23T09:38:27;31.23;;;14.57;;
30874;SDS011;17581;43.222;27.924;2023-03-23T09:52:16;43.00;;;15.70;;
30874;SDS011;17581;43.222;27.924;2023-03-23T09:54:43;33.40;;;14.80;;
30874;SDS011;17581;43.222;27.924;2023-03-23T09:57:15;32.72;;;15.93;;
30874;SDS011;17581;43.222;27.924;2023-03-23T09:59:51;32.33;;;16.23;;
30874;SDS011;17581;43.222;27.924;2023-03-23T10:02:27;19.95;;;14.07;;
30874;SDS011;17581;43.222;27.924;2023-03-23T10:05:12;32.63;;;15.88;;
30874;SDS011;17581;43.222;27.924;2023-03-23T10:07:40;29.10;;;16.83;;
30874;SDS011;17581;43.222;27.924;2023-03-23T10:10:08;26.85;;;17.05;;
30874;SDS011;17581;43.222;27.924;2023-03-23T10:12:46;26.80;;;16.02;;
30874;SDS011;17581;43.222;27.924;2023-03-23T10:15:25;33.35;;;16.45;;
30874;SDS011;17581;43.222;27.924;2023-03-23T10:20:56;30.15;;;14.32;;
30874;SDS011;17581;43.222;27.924;2023-03-23T10:28:52;23.48;;;15.32;;
30874;SDS011;17581;43.222;27.924;2023-03-23T10:31:23;32.33;;;14.55;;
30874;SDS011;17581;43.222;27.924;2023-03-23T10:33:54;30.92;;;15.25;;
30874;SDS011;17581;43.222;27.924;2023-03-23T10:36:31;36.78;;;16.42;;
30874;SDS011;17581;43.222;27.924;2023-03-23T10:41:39;28.15;;;14.40;;
30874;SDS011;17581;43.222;27.924;2023-03-23T10:44:13;20.38;;;13.85;;
30874;SDS011;17581;43.222;27.924;2023-03-23T10:46:45;20.30;;;13.60;;
30874;SDS011;17581;43.222;27.924;2023-03-23T10:49:17;31.63;;;15.30;;
30874;SDS011;17581;43.222;27.924;2023-03-23T10:51:56;28.25;;;14.05;;
30874;SDS011;17581;43.222;27.924;2023-03-23T10:54:31;21.60;;;13.32;;
30874;SDS011;17581;43.222;27.924;2023-03-23T10:57:00;28.70;;;15.02;;
30874;SDS011;17581;43.222;27.924;2023-03-23T10:59:39;35.72;;;14.82;;
30874;SDS011;17581;43.222;27.924;2023-03-23T11:02:10;31.00;;;14.85;;
30874;SDS011;17581;43.222;27.924;2023-03-23T11:04:44;26.50;;;13.82;;
30874;SDS011;17581;43.222;27.924;2023-03-23T11:07:15;41.83;;;16.00;;
30874;SDS011;17581;43.222;27.924;2023-03-23T11:09:56;21.27;;;14.15;;
30874;SDS011;17581;43.222;27.924;2023-03-23T11:12:28;34.63;;;15.57;;
30874;SDS011;17581;43.222;27.924;2023-03-23T11:15:03;40.42;;;16.83;;
30874;SDS011;17581;43.222;27.924;2023-03-23T11:17:40;28.77;;;15.45;;
30874;SDS011;17581;43.222;27.924;2023-03-23T11:20:10;27.05;;;13.68;;
30874;SDS011;17581;43.222;27.924;2023-03-23T11:22:37;30.13;;;13.25;;
30874;SDS011;17581;43.222;27.924;2023-03-23T11:25:04;28.42;;;13.10;;
30874;SDS011;17581;43.222;27.924;2023-03-23T11:27:30;23.08;;;12.25;;
30874;SDS011;17581;43.222;27.924;2023-03-23T11:30:00;24.35;;;14.00;;
30874;SDS011;17581;43.222;27.924;2023-03-23T11:32:34;28.65;;;14.10;;
30874;SDS011;17581;43.222;27.924;2023-03-23T11:35:02;19.52;;;12.95;;
30874;SDS011;17581;43.222;27.924;2023-03-23T11:37:41;30.52;;;14.23;;
30874;SDS011;17581;43.222;27.924;2023-03-23T11:45:14;41.67;;;18.25;;
30874;SDS011;17581;43.222;27.924;2023-03-23T11:58:36;33.92;;;15.30;;
30874;SDS011;17581;43.222;27.924;2023-03-23T12:03:42;37.58;;;17.13;;
30874;SDS011;17581;43.222;27.924;2023-03-23T12:06:19;32.42;;;16.52;;
30874;SDS011;17581;43.222;27.924;2023-03-23T12:09:08;24.80;;;15.35;;
30874;SDS011;17581;43.222;27.924;2023-03-23T12:22:04;42.13;;;17.92;;
30874;SDS011;17581;43.222;27.924;2023-03-23T12:24:40;33.60;;;16.13;;
30874;SDS011;17581;43.222;27.924;2023-03-23T12:46:05;53.58;;;17.38;;
30874;SDS011;17581;43.222;27.924;2023-03-23T12:51:32;42.25;;;15.57;;
30874;SDS011;17581;43.222;27.924;2023-03-23T13:04:44;24.83;;;14.88;;
30874;SDS011;17581;43.222;27.924;2023-03-23T13:07:18;29.35;;;15.80;;
30874;SDS011;17581;43.222;27.924;2023-03-23T13:12:29;34.13;;;14.32;;
30874;SDS011;17581;43.222;27.924;2023-03-23T13:25:52;45.40;;;16.48;;
30874;SDS011;17581;43.222;27.924;2023-03-23T13:28:28;27.95;;;14.45;;
30874;SDS011;17581;43.222;27.924;2023-03-23T13:30:57;34.95;;;14.93;;
30874;SDS011;17581;43.222;27.924;2023-03-23T13:33:37;34.00;;;14.13;;
30874;SDS011;17581;43.222;27.924;2023-03-23T13:36:04;47.42;;;14.68;;
30874;SDS011;17581;43.222;27.924;2023-03-23T13:38:34;42.08;;;13.15;;
30874;SDS011;17581;43.222;27.924;2023-03-23T13:41:06;38.90;;;13.55;;
30874;SDS011;17581;43.222;27.924;2023-03-23T13:43:37;24.67;;;11.30;;
30874;SDS011;17581;43.222;27.924;2023-03-23T13:46:11;15.48;;;8.77;;
30874;SDS011;17581;43.222;27.924;2023-03-23T13:48:50;30.02;;;9.30;;
30874;SDS011;17581;43.222;27.924;2023-03-23T13:51:33;26.00;;;10.48;;
30874;SDS011;17581;43.222;27.924;2023-03-23T13:54:13;26.00;;;10.98;;
30874;SDS011;17581;43.222;27.924;2023-03-23T14:01:51;54.35;;;12.45;;
30874;SDS011;17581;43.222;27.924;2023-03-23T14:04:18;25.55;;;11.48;;
30874;SDS011;17581;43.222;27.924;2023-03-23T14:06:45;23.30;;;11.30;;
30874;SDS011;17581;43.222;27.924;2023-03-23T14:09:27;55.45;;;13.88;;
30874;SDS011;17581;43.222;27.924;2023-03-23T14:12:04;21.50;;;10.18;;
30874;SDS011;17581;43.222;27.924;2023-03-23T14:19:44;28.80;;;10.85;;
30874;SDS011;17581;43.222;27.924;2023-03-23T14:22:17;27.35;;;10.60;;
30874;SDS011;17581;43.222;27.924;2023-03-23T14:24:44;33.70;;;11.90;;
30874;SDS011;17581;43.222;27.924;2023-03-23T14:27:15;54.70;;;11.90;;
30874;SDS011;17581;43.222;27.924;2023-03-23T14:29:46;33.90;;;11.73;;
30874;SDS011;17581;43.222;27.924;2023-03-23T14:32:22;51.70;;;14.25;;
30874;SDS011;17581;43.222;27.924;2023-03-23T14:34:51;38.83;;;11.77;;
30874;SDS011;17581;43.222;27.924;2023-03-23T14:37:17;48.00;;;13.18;;
30874;SDS011;17581;43.222;27.924;2023-03-23T14:39:46;44.72;;;19.98;;
30874;SDS011;17581;43.222;27.924;2023-03-23T14:42:14;35.70;;;14.43;;
30874;SDS011;17581;43.222;27.924;2023-03-23T14:44:47;52.05;;;14.10;;
30874;SDS011;17581;43.222;27.924;2023-03-23T14:47:25;35.17;;;12.70;;
30874;SDS011;17581;43.222;27.924;2023-03-23T14:50:00;43.80;;;13.82;;
30874;SDS011;17581;43.222;27.924;2023-03-23T14:52:29;57.67;;;13.75;;
30874;SDS011;17581;43.222;27.924;2023-03-23T14:55:14;46.95;;;14.95;;
30874;SDS011;17581;43.222;27.924;2023-03-23T14:57:43;34.58;;;13.07;;
30874;SDS011;17581;43.222;27.924;2023-03-23T15:00:14;58.58;;;18.25;;
30874;SDS011;17581;43.222;27.924;2023-03-23T15:02:41;42.15;;;13.65;;
30874;SDS011;17581;43.222;27.924;2023-03-23T15:05:11;44.35;;;15.50;;
30874;SDS011;17581;43.222;27.924;2023-03-23T15:07:44;69.93;;;16.20;;
30874;SDS011;17581;43.222;27.924;2023-03-23T15:10:16;42.95;;;14.07;;
30874;SDS011;17581;43.222;27.924;2023-03-23T15:12:44;35.73;;;13.13;;
30874;SDS011;17581;43.222;27.924;2023-03-23T15:15:27;39.42;;;12.10;;
30874;SDS011;17581;43.222;27.924;2023-03-23T15:17:55;90.25;;;16.02;;
30874;SDS011;17581;43.222;27.924;2023-03-23T15:20:26;99.75;;;17.10;;
30874;SDS011;17581;43.222;27.924;2023-03-23T15:22:52;38.30;;;11.73;;
30874;SDS011;17581;43.222;27.924;2023-03-23T15:27:52;30.92;;;12.18;;
30874;SDS011;17581;43.222;27.924;2023-03-23T15:32:47;41.17;;;11.95;;
30874;SDS011;17581;43.222;27.924;2023-03-23T15:35:25;36.00;;;14.32;;
30874;SDS011;17581;43.222;27.924;2023-03-23T15:37:52;56.67;;;13.75;;
30874;SDS011;17581;43.222;27.924;2023-03-23T15:40:45;18.25;;;10.05;;
30874;SDS011;17581;43.222;27.924;2023-03-23T15:43:18;38.38;;;12.55;;
30874;SDS011;17581;43.222;27.924;2023-03-23T15:46:02;59.25;;;13.98;;
30874;SDS011;17581;43.222;27.924;2023-03-23T15:48:47;28.40;;;11.30;;
30874;SDS011;17581;43.222;27.924;2023-03-23T15:51:34;34.33;;;15.10;;
30874;SDS011;17581;43.222;27.924;2023-03-23T15:54:00;33.55;;;16.10;;
30874;SDS011;17581;43.222;27.924;2023-03-23T15:56:26;58.08;;;15.70;;
30874;SDS011;17581;43.222;27.924;2023-03-23T15:58:54;67.18;;;16.40;;
30874;SDS011;17581;43.222;27.924;2023-03-23T16:01:25;45.08;;;16.73;;
30874;SDS011;17581;43.222;27.924;2023-03-23T16:03:56;47.30;;;15.15;;
30874;SDS011;17581;43.222;27.924;2023-03-23T16:06:26;43.45;;;13.90;;
30874;SDS011;17581;43.222;27.924;2023-03-23T16:08:54;32.13;;;12.52;;
30874;SDS011;17581;43.222;27.924;2023-03-23T16:11:20;50.30;;;17.17;;
30874;SDS011;17581;43.222;27.924;2023-03-23T16:13:47;30.67;;;14.25;;
30874;SDS011;17581;43.222;27.924;2023-03-23T16:18:51;67.25;;;20.55;;
30874;SDS011;17581;43.222;27.924;2023-03-23T16:21:16;48.10;;;18.20;;
30874;SDS011;17581;43.222;27.924;2023-03-23T16:23:42;72.70;;;23.45;;
30874;SDS011;17581;43.222;27.924;2023-03-23T16:26:10;56.75;;;18.13;;
30874;SDS011;17581;43.222;27.924;2023-03-23T16:28:36;65.57;;;19.70;;
30874;SDS011;17581;43.222;27.924;2023-03-23T16:31:02;53.33;;;19.13;;
30874;SDS011;17581;43.222;27.924;2023-03-23T16:33:27;40.58;;;16.30;;
30874;SDS011;17581;43.222;27.924;2023-03-23T16:35:53;43.72;;;17.40;;
30874;SDS011;17581;43.222;27.924;2023-03-23T16:38:18;43.13;;;16.25;;
30874;SDS011;17581;43.222;27.924;2023-03-23T16:40:44;44.28;;;15.32;;
30874;SDS011;17581;43.222;27.924;2023-03-23T16:43:11;33.80;;;12.27;;
30874;SDS011;17581;43.222;27.924;2023-03-23T16:45:38;21.30;;;10.32;;
30874;SDS011;17581;43.222;27.924;2023-03-23T16:48:05;34.45;;;16.25;;
30874;SDS011;17581;43.222;27.924;2023-03-23T16:50:32;37.60;;;14.18;;
30874;SDS011;17581;43.222;27.924;2023-03-23T16:52:58;63.30;;;20.33;;
30874;SDS011;17581;43.222;27.924;2023-03-23T16:55:24;57.92;;;19.75;;
30874;SDS011;17581;43.222;27.924;2023-03-23T16:57:51;69.90;;;20.50;;
30874;SDS011;17581;43.222;27.924;2023-03-23T17:00:17;59.83;;;20.90;;
30874;SDS011;17581;43.222;27.924;2023-03-23T17:02:48;65.80;;;21.90;;
30874;SDS011;17581;43.222;27.924;2023-03-23T17:05:16;66.90;;;24.75;;
30874;SDS011;17581;43.222;27.924;2023-03-23T17:07:46;74.55;;;21.50;;